Time,TemperatureF,DewpointF,PressureIn,WindDirection,WindDirectionDegrees,WindSpeedMPH,WindSpeedGustMPH,Humidity,HourlyPrecipIn,Conditions,Clouds,dailyrainin,SolarRadiationWatts/m^2,SoftwareType,DateUTC
2013-07-08 00:02:00,68.0,68.0,-100.00,NNE,18,0.0,3.0,99,0.00,,,0.64,0.000000,,2013-07-08 04:02:00,
2013-07-08 00:33:00,68.0,68.0,-100.00,NNE,16,0.0,0.0,99,0.00,,,0.51,0.000000,,2013-07-08 04:33:00,
2013-07-08 00:42:00,68.0,68.0,-100.00,NNE,16,0.0,0.0,99,0.00,,,0.51,0.000000,,2013-07-08 04:42:00,
2013-07-08 00:53:00,68.0,68.0,-100.00,NNE,16,0.0,0.0,99,0.00,,,0.51,0.000000,,2013-07-08 04:53:00,
2013-07-08 01:01:00,68.0,68.0,-100.00,NNE,16,0.0,0.0,99,0.00,,,0.51,0.000000,,2013-07-08 05:01:00,
2013-07-08 01:34:00,68.0,68.0,-100.00,NNE,26,0.0,0.0,99,0.00,,,0.49,0.000000,,2013-07-08 05:34:00,
2013-07-08 01:43:00,68.0,68.0,-100.00,NNE,26,0.0,0.0,99,0.00,,,0.49,0.000000,,2013-07-08 05:43:00,
2013-07-08 01:53:00,68.0,68.0,-100.00,NNE,26,0.0,0.0,99,0.00,,,0.49,0.000000,,2013-07-08 05:53:00,
2013-07-08 02:01:00,68.0,68.0,-100.00,NNE,26,0.0,0.0,99,0.00,,,0.49,0.000000,,2013-07-08 06:01:00,
2013-07-08 02:34:00,67.0,67.0,-100.00,NNE,21,0.0,0.0,99,0.00,,,0.49,0.000000,,2013-07-08 06:34:00,
2013-07-08 02:43:00,67.0,67.0,-100.00,NNE,21,0.0,0.0,99,0.00,,,0.49,0.000000,,2013-07-08 06:43:00,
2013-07-08 02:53:00,67.0,67.0,-100.00,NNE,21,0.0,0.0,99,0.00,,,0.49,0.000000,,2013-07-08 06:53:00,
2013-07-08 03:02:00,67.0,67.0,-100.00,NNE,21,0.0,0.0,99,0.00,,,0.49,0.000000,,2013-07-08 07:02:00,
2013-07-08 03:34:00,67.0,67.0,-100.00,NNE,15,0.0,0.0,99,0.01,,,0.49,0.000000,,2013-07-08 07:34:00,
2013-07-08 03:44:00,67.0,67.0,-100.00,NNE,15,0.0,0.0,99,0.01,,,0.49,0.000000,,2013-07-08 07:44:00,
2013-07-08 03:53:00,67.0,67.0,-100.00,NNE,15,0.0,0.0,99,0.01,,,0.49,0.000000,,2013-07-08 07:53:00,
2013-07-08 04:02:00,67.0,67.0,-100.00,NNE,15,0.0,0.0,99,0.01,,,0.49,0.000000,,2013-07-08 08:02:00,
2013-07-08 04:34:00,67.0,67.0,-100.00,NE,38,2.0,4.0,99,0.00,,,0.49,0.000000,,2013-07-08 08:34:00,
2013-07-08 04:42:00,67.0,67.0,-100.00,NE,38,2.0,4.0,99,0.00,,,0.49,0.000000,,2013-07-08 08:42:00,
2013-07-08 04:53:00,67.0,67.0,-100.00,NE,38,2.0,4.0,99,0.00,,,0.49,0.000000,,2013-07-08 08:53:00,
2013-07-08 05:02:00,67.0,67.0,-100.00,NE,38,2.0,4.0,99,0.00,,,0.49,0.000000,,2013-07-08 09:02:00,
2013-07-08 05:34:00,67.0,67.0,-100.00,NNE,28,0.0,2.0,99,0.00,,,0.48,0.000000,,2013-07-08 09:34:00,
2013-07-08 05:43:00,67.0,67.0,-100.00,NNE,28,0.0,2.0,99,0.00,,,0.48,0.000000,,2013-07-08 09:43:00,
2013-07-08 05:53:00,67.0,67.0,-100.00,NNE,28,0.0,2.0,99,0.00,,,0.48,0.000000,,2013-07-08 09:53:00,
2013-07-08 06:02:00,67.0,67.0,-100.00,NNE,28,0.0,2.0,99,0.00,,,0.48,0.000000,,2013-07-08 10:02:00,
2013-07-08 06:34:00,67.0,67.0,-100.00,NNE,29,2.0,4.0,99,0.00,,,0.47,0.000000,,2013-07-08 10:34:00,
2013-07-08 06:43:00,67.0,67.0,-100.00,NNE,29,2.0,4.0,99,0.00,,,0.47,0.000000,,2013-07-08 10:43:00,
2013-07-08 06:53:00,67.0,67.0,-100.00,NNE,29,2.0,4.0,99,0.00,,,0.47,0.000000,,2013-07-08 10:53:00,
2013-07-08 07:02:00,67.0,67.0,-100.00,NNE,29,2.0,4.0,99,0.00,,,0.47,0.000000,,2013-07-08 11:02:00,
2013-07-08 07:33:00,67.0,67.0,-100.00,NNE,16,0.0,0.0,99,0.00,,,0.47,6.000000,,2013-07-08 11:33:00,
2013-07-08 07:43:00,67.0,67.0,-100.00,NNE,16,0.0,0.0,99,0.00,,,0.47,6.000000,,2013-07-08 11:43:00,
2013-07-08 07:53:00,67.0,67.0,-100.00,NNE,16,0.0,0.0,99,0.00,,,0.47,6.000000,,2013-07-08 11:53:00,
2013-07-08 08:01:00,67.0,67.0,-100.00,NNE,16,0.0,0.0,99,0.00,,,0.47,6.000000,,2013-07-08 12:01:00,
2013-07-08 08:34:00,68.0,68.0,-100.00,NNE,19,0.0,3.0,99,0.00,,,0.47,39.000000,,2013-07-08 12:34:00,
2013-07-08 08:43:00,68.0,68.0,-100.00,NNE,19,0.0,3.0,99,0.00,,,0.47,39.000000,,2013-07-08 12:43:00,
2013-07-08 08:53:00,68.0,68.0,-100.00,NNE,19,0.0,3.0,99,0.00,,,0.47,39.000000,,2013-07-08 12:53:00,
2013-07-08 09:02:00,68.0,68.0,-100.00,NNE,19,0.0,3.0,99,0.00,,,0.47,39.000000,,2013-07-08 13:02:00,
2013-07-08 09:43:00,70.0,69.0,-100.00,North,11,2.0,4.0,98,0.00,,,0.46,159.000000,,2013-07-08 13:43:00,
2013-07-08 09:53:00,70.0,69.0,-100.00,North,11,2.0,4.0,98,0.00,,,0.46,159.000000,,2013-07-08 13:53:00,
2013-07-08 10:02:00,70.0,69.0,-100.00,North,11,2.0,4.0,98,0.00,,,0.46,159.000000,,2013-07-08 14:02:00,
2013-07-08 10:43:00,76.0,71.0,-100.00,NNE,15,3.0,4.0,84,0.00,,,0.45,479.000000,,2013-07-08 14:43:00,
2013-07-08 10:53:00,76.0,71.0,-100.00,NNE,15,3.0,4.0,84,0.00,,,0.45,479.000000,,2013-07-08 14:53:00,
2013-07-08 11:02:00,76.0,71.0,-100.00,NNE,15,3.0,4.0,84,0.00,,,0.45,479.000000,,2013-07-08 15:02:00,
2013-07-08 11:43:00,80.0,71.0,-100.00,NE,45,3.0,6.0,74,0.00,,,0.45,838.000000,,2013-07-08 15:43:00,
2013-07-08 11:53:00,80.0,71.0,-100.00,NE,45,3.0,6.0,74,0.00,,,0.45,838.000000,,2013-07-08 15:53:00,
2013-07-08 12:01:00,80.0,71.0,-100.00,NE,45,3.0,6.0,74,0.00,,,0.45,838.000000,,2013-07-08 16:01:00,
2013-07-08 12:05:00,83.0,70.0,-100.00,ENE,66,3.0,6.0,65,0.00,,,0.45,946.000000,,2013-07-08 16:05:00,
2013-07-08 12:43:00,83.0,70.0,-100.00,ENE,66,3.0,6.0,65,0.00,,,0.45,946.000000,,2013-07-08 16:43:00,
2013-07-08 13:48:00,84.0,72.0,-100.00,North,0,4.0,8.0,68,0.00,,,0.45,821.000000,,2013-07-08 17:48:00,
2013-07-08 15:01:00,85.0,70.0,-100.00,North,349,3.0,6.0,62,0.00,,,0.45,825.000000,,2013-07-08 19:01:00,
2013-07-08 15:05:00,87.0,69.0,-100.00,North,10,4.0,7.0,55,0.00,,,0.45,1091.000000,,2013-07-08 19:05:00,
2013-07-08 15:42:00,87.0,69.0,-100.00,North,10,4.0,7.0,55,0.00,,,0.45,1091.000000,,2013-07-08 19:42:00,
2013-07-08 15:58:00,87.0,69.0,-100.00,North,10,4.0,7.0,55,0.00,,,0.45,1091.000000,,2013-07-08 19:58:00,
2013-07-08 16:05:00,87.0,68.0,-100.00,North,350,5.0,8.0,54,0.00,,,0.41,984.000000,,2013-07-08 20:05:00,
2013-07-08 16:56:00,87.0,68.0,-100.00,North,350,5.0,8.0,54,0.00,,,0.41,984.000000,,2013-07-08 20:56:00,
2013-07-08 17:05:00,86.0,69.0,-100.00,North,10,5.0,9.0,58,0.00,,,0.41,822.000000,,2013-07-08 21:05:00,
2013-07-08 18:05:00,82.0,66.0,-100.00,North,5,4.0,10.0,59,0.00,,,0.41,528.000000,,2013-07-08 22:05:00,
2013-07-08 18:49:00,82.0,66.0,-100.00,North,5,4.0,10.0,59,0.00,,,0.41,528.000000,,2013-07-08 22:49:00,
2013-07-08 19:50:00,84.0,70.0,-100.00,North,6,3.0,7.0,63,0.00,,,0.41,360.000000,,2013-07-08 23:50:00,
2013-07-08 20:00:00,84.0,70.0,-100.00,North,6,3.0,7.0,63,0.00,,,0.41,360.000000,,2013-07-09 00:00:00,
2013-07-08 20:05:00,80.0,67.0,-100.00,North,3,2.0,8.0,65,0.00,,,0.27,222.000000,,2013-07-09 00:05:00,
2013-07-08 20:45:00,80.0,67.0,-100.00,North,3,2.0,8.0,65,0.00,,,0.27,222.000000,,2013-07-09 00:45:00,
2013-07-08 21:05:00,74.0,68.0,-100.00,North,4,0.0,5.0,81,0.00,,,0.01,24.000000,,2013-07-09 01:05:00,
2013-07-08 22:05:00,71.0,69.0,-100.00,North,5,0.0,3.0,93,0.00,,,0.01,0.000000,,2013-07-09 02:05:00,